Time;durP1;ratioP1;P1;durP2;ratioP2;P2;SDS_P1;SDS_P2;PMS_P1;PMS_P2;Temp;Humidity;BMP_temperature;BMP_pressure;BME280_temperature;BME280_humidity;BME280_pressure;Samples;Min_cycle;Max_cycle;Signal;HPM_P1;HPM_P2
2023/12/10 00:00:26;;;;;;;4.70;1.70;;;10.70;61.40;;;;;;20746;6791;118448;-75
2023/12/10 00:03:07;;;;;;;8.07;2.10;;;10.40;62.60;;;;;;20829;6768;119308;-74
2023/12/10 00:05:39;;;;;;;8.93;2.60;;;10.40;62.60;;;;;;20620;6763;306172;-74
2023/12/10 00:08:15;;;;;;;6.50;2.40;;;10.50;62.10;;;;;;20636;6763;285924;-74
2023/12/10 00:10:54;;;;;;;7.77;1.87;;;10.70;61.20;;;;;;20793;6766;116966;-74
2023/12/10 00:13:28;;;;;;;8.00;2.70;;;10.70;61.40;;;;;;20634;6760;306686;-74
2023/12/10 00:16:03;;;;;;;9.30;2.60;;;10.70;61.10;;;;;;20623;6758;309412;-75
2023/12/10 00:18:39;;;;;;;7.83;2.20;;;10.90;60.50;;;;;;20873;6754;117344;-74
2023/12/10 00:21:15;;;;;;;10.87;2.80;;;10.70;60.60;;;;;;20581;6754;339134;-74
2023/12/10 00:23:50;;;;;;;7.07;2.17;;;10.70;60.80;;;;;;20849;6761;119289;-74
2023/12/10 00:26:28;;;;;;;7.63;2.63;;;10.50;61.10;;;;;;20650;6760;335659;-75
2023/12/10 00:29:04;;;;;;;10.43;2.90;;;10.50;61.10;;;;;;20661;6766;336098;-75
2023/12/10 00:31:43;;;;;;;7.80;2.50;;;10.70;60.60;;;;;;20481;6769;309065;-74
2023/12/10 00:34:18;;;;;;;10.15;2.92;;;10.90;60.10;;;;;;20603;6769;307626;-75
2023/12/10 00:36:55;;;;;;;6.53;2.50;;;11.00;59.50;;;;;;20821;6769;118928;-75
2023/12/10 00:39:31;;;;;;;8.13;1.90;;;10.80;60.00;;;;;;20863;6769;117150;-74
2023/12/10 00:42:06;;;;;;;8.13;2.60;;;10.40;60.70;;;;;;20705;6759;118744;-75
2023/12/10 00:44:42;;;;;;;10.90;3.13;;;10.20;61.50;;;;;;20600;6776;308535;-75
2023/12/10 00:47:18;;;;;;;11.30;3.10;;;10.20;61.20;;;;;;20868;6759;117291;-75
2023/12/10 00:49:54;;;;;;;9.50;2.90;;;10.20;61.40;;;;;;20800;6774;117213;-75
2023/12/10 00:52:29;;;;;;;11.93;3.58;;;10.00;61.90;;;;;;20457;6827;309702;-75
2023/12/10 00:55:06;;;;;;;14.90;3.40;;;10.40;60.70;;;;;;20588;6774;339089;-75
2023/12/10 00:57:42;;;;;;;10.15;3.05;;;10.40;60.70;;;;;;20620;6758;277694;-74
2023/12/10 01:00:18;;;;;;;7.17;2.20;;;10.60;60.10;;;;;;20872;6747;117165;-74
2023/12/10 01:02:54;;;;;;;10.02;2.87;;;10.50;60.30;;;;;;20621;6771;335333;-75
2023/12/10 01:05:29;;;;;;;11.73;3.25;;;10.50;60.20;;;;;;20626;6774;307237;-75
2023/12/10 01:08:04;;;;;;;8.30;2.80;;;10.70;59.90;;;;;;20578;6776;308344;-75
2023/12/10 01:10:40;;;;;;;5.57;2.70;;;10.90;59.50;;;;;;20732;6791;117291;-75
2023/12/10 01:13:16;;;;;;;11.05;3.45;;;10.70;59.80;;;;;;20616;6767;336074;-75
2023/12/10 01:15:51;;;;;;;14.97;3.40;;;10.70;59.70;;;;;;20886;6742;117320;-75
2023/12/10 01:18:31;;;;;;;11.32;3.30;;;10.50;59.70;;;;;;20599;6772;305769;-76
2023/12/10 01:21:09;;;;;;;7.73;2.90;;;10.50;59.70;;;;;;20744;6787;117869;-75
2023/12/10 01:23:42;;;;;;;16.33;3.83;;;10.40;60.00;;;;;;20622;6763;290464;-75
2023/12/10 01:26:19;;;;;;;10.70;3.17;;;10.30;60.00;;;;;;20801;6778;117621;-75
2023/12/10 01:28:54;;;;;;;9.60;2.83;;;10.30;60.00;;;;;;20853;6757;117035;-75
2023/12/10 01:31:30;;;;;;;14.43;4.17;;;10.10;60.60;;;;;;20527;6754;338652;-75
2023/12/10 01:34:07;;;;;;;17.77;4.05;;;10.10;60.40;;;;;;20651;6754;279274;-75
2023/12/10 01:36:43;;;;;;;12.70;4.07;;;10.30;59.60;;;;;;20614;6791;277345;-74
2023/12/10 01:39:18;;;;;;;17.77;4.45;;;10.60;58.70;;;;;;20587;6777;279177;-75
2023/12/10 01:41:55;;;;;;;14.10;3.60;;;10.60;58.50;;;;;;20752;6746;117617;-75
2023/12/10 01:44:32;;;;;;;17.20;3.97;;;10.20;59.20;;;;;;20921;6746;117340;-75
2023/12/10 01:47:07;;;;;;;16.45;4.25;;;10.20;59.00;;;;;;20761;6747;292251;-75
2023/12/10 01:49:43;;;;;;;14.20;3.43;;;10.20;59.00;;;;;;20945;6737;117042;-75
2023/12/10 01:52:22;;;;;;;13.97;3.63;;;10.10;59.30;;;;;;20790;6762;67996;-76
2023/12/10 01:54:58;;;;;;;14.13;3.40;;;9.90;60.90;;;;;;20946;6762;116585;-77
2023/12/10 01:57:31;;;;;;;18.17;4.55;;;9.70;61.60;;;;;;20624;6772;335411;-75
2023/12/10 02:00:08;;;;;;;16.67;3.40;;;9.80;61.30;;;;;;20804;6772;118308;-75
2023/12/10 02:02:44;;;;;;;14.90;3.77;;;9.80;61.30;;;;;;20823;6775;118662;-75
2023/12/10 02:05:19;;;;;;;18.90;4.43;;;9.60;61.70;;;;;;20599;6780;306513;-76
2023/12/10 02:07:54;;;;;;;14.60;3.47;;;9.70;61.40;;;;;;20920;6729;117830;-75
2023/12/10 02:10:30;;;;;;;17.00;3.80;;;9.70;61.40;;;;;;20693;6729;337789;-75
2023/12/10 02:13:06;;;;;;;14.27;3.40;;;9.80;61.10;;;;;;20794;6765;117700;-76
2023/12/10 02:15:41;;;;;;;15.00;3.43;;;9.80;61.30;;;;;;20786;6777;118225;-76
2023/12/10 02:18:19;;;;;;;16.23;4.35;;;9.60;61.80;;;;;;20593;6772;336325;-75
2023/12/10 02:20:56;;;;;;;14.27;3.30;;;9.70;61.50;;;;;;20769;6772;117910;-75
2023/12/10 02:23:33;;;;;;;9.27;2.80;;;9.70;61.70;;;;;;20832;6764;117611;-75
2023/12/10 02:26:07;;;;;;;16.23;4.03;;;9.60;62.30;;;;;;20593;6778;307542;-75
2023/12/10 02:28:43;;;;;;;13.00;3.40;;;9.70;61.90;;;;;;20852;6774;117249;-75
2023/12/10 02:31:19;;;;;;;13.80;3.53;;;9.70;62.00;;;;;;20717;6789;118212;-76
2023/12/10 02:33:54;;;;;;;15.75;4.18;;;9.50;62.60;;;;;;20650;6666;336220;-68
2023/12/10 02:36:30;;;;;;;19.30;5.13;;;9.70;62.60;;;;;;20852;6763;118645;-68
2023/12/10 02:39:06;;;;;;;13.07;3.30;;;9.70;62.60;;;;;;20842;6767;117421;-68
2023/12/10 02:41:42;;;;;;;15.80;4.20;;;9.60;63.10;;;;;;20413;6784;287220;-69
2023/12/10 02:44:18;;;;;;;23.25;4.47;;;9.90;62.20;;;;;;20611;6774;308411;-68
2023/12/10 02:46:54;;;;;;;18.10;4.13;;;10.30;61.20;;;;;;20572;6779;278770;-68
2023/12/10 02:49:30;;;;;;;17.27;4.40;;;10.20;60.50;;;;;;20532;6796;340003;-69
2023/12/10 02:52:05;;;;;;;14.87;3.63;;;10.50;59.90;;;;;;20643;6777;119489;-69
2023/12/10 02:54:41;;;;;;;12.93;3.30;;;10.30;60.00;;;;;;20746;6790;117889;-70
2023/12/10 02:57:17;;;;;;;15.73;4.00;;;10.00;60.70;;;;;;20588;6778;336853;-69
2023/12/10 02:59:54;;;;;;;15.75;4.25;;;10.20;59.40;;;;;;20520;6791;306047;-70
2023/12/10 03:02:30;;;;;;;13.07;3.90;;;10.20;59.40;;;;;;20602;6847;117780;-70
2023/12/10 03:05:06;;;;;;;13.65;3.87;;;10.00;59.50;;;;;;20633;6761;307125;-70
2023/12/10 03:07:41;;;;;;;9.47;2.50;;;10.00;59.30;;;;;;20782;6776;118401;-69
2023/12/10 03:10:17;;;;;;;15.50;3.50;;;9.90;60.60;;;;;;20559;6776;339067;-70
2023/12/10 03:12:52;;;;;;;13.30;3.10;;;9.90;60.50;;;;;;20800;6776;117152;-69
2023/12/10 03:15:28;;;;;;;9.23;2.60;;;9.80;60.90;;;;;;20743;6787;117258;-70
2023/12/10 03:18:05;;;;;;;7.93;2.63;;;9.30;62.20;;;;;;20803;6772;117045;-70
2023/12/10 03:20:40;;;;;;;12.32;3.70;;;9.30;62.20;;;;;;20425;6807;293241;-70
2023/12/10 03:23:16;;;;;;;7.90;2.60;;;9.40;61.80;;;;;;20738;6802;117591;-69
2023/12/10 03:25:52;;;;;;;8.45;2.72;;;9.40;61.80;;;;;;20501;6805;335007;-70
2023/12/10 03:28:28;;;;;;;8.93;2.67;;;9.50;61.70;;;;;;20827;6765;117135;-69
2023/12/10 03:31:04;;;;;;;9.70;2.43;;;9.50;61.60;;;;;;20689;6794;118611;-70
2023/12/10 03:33:40;;;;;;;12.55;3.00;;;9.30;62.20;;;;;;20568;6779;337747;-69
2023/12/10 03:36:16;;;;;;;9.40;3.17;;;9.70;60.70;;;;;;20582;6782;303266;-68
2023/12/10 03:38:52;;;;;;;9.33;2.27;;;9.70;60.70;;;;;;20835;6767;119765;-69
2023/12/10 03:41:27;;;;;;;8.63;3.37;;;9.70;60.80;;;;;;20512;6767;282007;-69
2023/12/10 03:44:06;;;;;;;8.20;2.75;;;9.70;60.20;;;;;;20586;6782;338147;-70
2023/12/10 03:46:39;;;;;;;7.57;2.70;;;9.90;59.40;;;;;;20604;6771;319783;-70
2023/12/10 03:49:14;;;;;;;7.67;2.53;;;10.10;57.70;;;;;;20813;6771;116960;-70
2023/12/10 03:51:50;;;;;;;12.17;3.30;;;9.90;59.10;;;;;;20518;6756;338282;-71
2023/12/10 03:54:25;;;;;;;11.85;3.47;;;9.80;58.90;;;;;;20575;6786;277908;-69
2023/12/10 03:57:01;;;;;;;9.30;3.40;;;10.00;57.40;;;;;;20564;6786;307804;-69
2023/12/10 03:59:37;;;;;;;9.53;2.63;;;10.10;57.00;;;;;;20717;6794;144191;-69
2023/12/10 04:02:12;;;;;;;11.15;3.40;;;9.90;58.60;;;;;;20453;6781;339778;-69
2023/12/10 04:04:48;;;;;;;6.40;2.30;;;9.90;58.70;;;;;;20802;6786;117753;-69
2023/12/10 04:07:24;;;;;;;5.47;2.50;;;9.70;59.20;;;;;;20785;6785;145167;-70
2023/12/10 04:09:59;;;;;;;8.50;2.30;;;9.40;60.10;;;;;;20812;6785;117178;-70
2023/12/10 04:12:35;;;;;;;7.97;2.20;;;9.20;60.90;;;;;;20565;6858;117410;-69
2023/12/10 04:15:10;;;;;;;6.73;2.63;;;9.00;61.60;;;;;;20803;6780;118053;-70
2023/12/10 04:17:46;;;;;;;5.97;2.30;;;8.90;62.20;;;;;;20814;6769;117416;-70
2023/12/10 04:20:22;;;;;;;10.07;3.47;;;8.80;62.60;;;;;;20548;6784;312953;-69
2023/12/10 04:22:57;;;;;;;14.93;3.03;;;9.00;62.00;;;;;;20843;6769;118220;-71
2023/12/10 04:25:33;;;;;;;10.83;3.53;;;9.00;61.80;;;;;;20512;6785;308711;-71
2023/12/10 04:28:09;;;;;;;8.20;2.97;;;9.30;61.10;;;;;;20744;6795;118612;-69
2023/12/10 04:30:46;;;;;;;10.00;2.67;;;9.10;62.20;;;;;;20740;6784;117445;-69
2023/12/10 04:33:21;;;;;;;11.65;3.10;;;9.10;61.40;;;;;;20510;6798;312100;-69
2023/12/10 04:35:57;;;;;;;7.27;3.07;;;9.30;60.50;;;;;;20802;6772;117259;-70
2023/12/10 04:38:33;;;;;;;9.60;2.77;;;9.30;60.60;;;;;;20859;6757;117385;-69
2023/12/10 04:41:08;;;;;;;12.07;3.70;;;9.10;60.90;;;;;;20543;6772;326775;-69
2023/12/10 04:43:45;;;;;;;12.33;2.93;;;9.30;60.00;;;;;;20819;6772;118207;-69
2023/12/10 04:46:20;;;;;;;10.20;3.53;;;9.30;59.90;;;;;;20618;6772;337705;-69
2023/12/10 04:48:56;;;;;;;5.73;2.00;;;9.40;58.70;;;;;;20812;6772;117702;-69
2023/12/10 04:51:31;;;;;;;12.33;3.63;;;9.40;59.00;;;;;;20497;6772;281213;-70
2023/12/10 04:54:07;;;;;;;5.67;2.60;;;9.50;58.10;;;;;;20807;6772;117790;-70
2023/12/10 04:56:42;;;;;;;10.17;2.53;;;9.50;58.50;;;;;;20826;6778;117505;-70
2023/12/10 04:59:18;;;;;;;11.53;2.33;;;9.30;59.20;;;;;;20792;6779;118491;-70
2023/12/10 05:01:54;;;;;;;8.17;2.30;;;9.10;59.80;;;;;;20670;6783;117416;-69
2023/12/10 05:04:29;;;;;;;10.00;3.17;;;8.90;60.20;;;;;;20628;6768;308331;-69
2023/12/10 05:07:06;;;;;;;7.90;2.50;;;9.10;59.20;;;;;;20793;6783;117219;-69
2023/12/10 05:09:41;;;;;;;14.07;3.22;;;9.10;59.20;;;;;;20606;6768;278629;-69
2023/12/10 05:12:17;;;;;;;9.17;2.37;;;9.30;58.20;;;;;;20547;6810;118769;-69
2023/12/10 05:14:53;;;;;;;13.57;3.33;;;9.30;58.40;;;;;;20574;6786;337211;-69
2023/12/10 05:17:28;;;;;;;10.07;3.25;;;9.40;57.60;;;;;;20583;6771;336741;-69
2023/12/10 05:20:05;;;;;;;14.05;3.58;;;9.70;56.60;;;;;;20552;6786;308195;-69
2023/12/10 05:22:40;;;;;;;13.70;3.87;;;10.00;55.00;;;;;;20571;6788;278009;-69
2023/12/10 05:25:15;;;;;;;10.73;3.30;;;10.10;54.60;;;;;;20767;6776;117730;-69
2023/12/10 05:27:51;;;;;;;11.12;3.62;;;10.00;55.20;;;;;;20550;6781;307296;-70
2023/12/10 05:30:31;;;;;;;9.63;3.07;;;9.80;56.50;;;;;;20757;6781;117812;-70
2023/12/10 05:33:03;;;;;;;8.80;2.57;;;9.80;56.40;;;;;;20700;6815;117566;-70
2023/12/10 05:35:39;;;;;;;9.10;2.90;;;9.50;57.20;;;;;;20768;6784;118187;-69
2023/12/10 05:38:14;;;;;;;9.50;2.60;;;9.30;58.00;;;;;;20785;6781;117051;-69
2023/12/10 05:40:50;;;;;;;8.93;2.60;;;8.80;59.10;;;;;;20734;6781;117113;-70
2023/12/10 05:43:26;;;;;;;11.93;3.20;;;8.80;59.10;;;;;;20542;6789;278637;-71
2023/12/10 05:46:02;;;;;;;12.80;3.53;;;9.00;58.50;;;;;;20635;6768;286497;-70
2023/12/10 05:48:37;;;;;;;12.93;3.67;;;9.40;57.60;;;;;;20609;6771;278581;-70
2023/12/10 05:51:13;;;;;;;12.03;3.43;;;9.70;56.60;;;;;;20574;6757;310433;-70
2023/12/10 05:53:52;;;;;;;9.10;2.50;;;9.80;56.70;;;;;;20793;6771;119946;-70
2023/12/10 05:56:28;;;;;;;12.30;3.33;;;9.70;56.60;;;;;;20636;6769;303217;-70
2023/12/10 05:59:03;;;;;;;8.83;3.00;;;9.70;56.30;;;;;;20851;6769;117627;-70
2023/12/10 06:01:39;;;;;;;9.77;3.27;;;9.60;56.80;;;;;;20480;6767;309507;-70
2023/12/10 06:04:15;;;;;;;14.52;3.50;;;9.60;56.40;;;;;;20591;6770;310393;-71
2023/12/10 06:06:51;;;;;;;9.00;2.30;;;9.70;56.20;;;;;;20704;6771;117168;-69
2023/12/10 06:09:27;;;;;;;10.80;2.77;;;9.70;56.20;;;;;;20789;6785;117287;-70
2023/12/10 06:12:02;;;;;;;10.30;3.12;;;9.40;57.00;;;;;;20448;6785;341385;-69
2023/12/10 06:14:38;;;;;;;13.45;3.30;;;9.40;56.10;;;;;;20550;6785;339376;-70
2023/12/10 06:17:14;;;;;;;13.25;3.37;;;9.60;56.30;;;;;;20560;6782;290961;-71
2023/12/10 06:19:49;;;;;;;8.00;2.73;;;9.80;55.70;;;;;;20835;6756;122507;-70
2023/12/10 06:22:26;;;;;;;12.27;3.47;;;9.70;56.00;;;;;;20475;6757;320299;-70
2023/12/10 06:25:04;;;;;;;10.80;2.93;;;9.70;55.90;;;;;;20633;6783;117612;-69
2023/12/10 06:27:37;;;;;;;10.32;3.15;;;9.50;56.50;;;;;;20532;6783;334465;-69
2023/12/10 06:30:12;;;;;;;8.98;3.12;;;9.50;56.30;;;;;;20495;6798;279025;-69
2023/12/10 06:32:48;;;;;;;10.73;3.28;;;9.70;55.90;;;;;;20618;6765;290599;-69
2023/12/10 06:35:24;;;;;;;10.50;2.80;;;9.70;56.10;;;;;;20800;6765;118069;-70
2023/12/10 06:38:00;;;;;;;13.37;2.80;;;9.70;56.00;;;;;;20912;6737;117046;-69
2023/12/10 06:40:36;;;;;;;10.75;3.03;;;9.40;56.80;;;;;;20648;6737;279924;-69
2023/12/10 06:43:11;;;;;;;8.05;3.58;;;9.40;56.70;;;;;;20709;6737;289946;-69
2023/12/10 06:45:47;;;;;;;12.97;3.83;;;9.60;56.30;;;;;;20468;6810;281560;-69
2023/12/10 06:48:23;;;;;;;10.90;3.33;;;9.80;55.90;;;;;;20546;6784;280093;-68
2023/12/10 06:51:02;;;;;;;11.03;2.97;;;9.90;55.50;;;;;;20672;6779;117240;-69
2023/12/10 06:53:39;;;;;;;6.90;2.57;;;9.70;56.00;;;;;;20770;6780;118661;-70
2023/12/10 06:56:12;;;;;;;9.35;3.12;;;9.30;56.80;;;;;;20448;6790;281703;-69
2023/12/10 06:58:49;;;;;;;14.05;3.60;;;9.40;56.90;;;;;;20509;6795;282576;-71
2023/12/10 07:01:27;;;;;;;10.43;3.50;;;9.60;56.40;;;;;;20441;6785;309621;-71
2023/12/10 07:04:00;;;;;;;10.67;3.40;;;9.80;55.80;;;;;;20526;6795;307423;-70
2023/12/10 07:06:36;;;;;;;10.47;3.27;;;9.90;55.30;;;;;;20507;6798;310584;-70
2023/12/10 07:09:16;;;;;;;8.20;2.57;;;9.90;55.50;;;;;;20863;6766;121072;-70
2023/12/10 07:11:51;;;;;;;8.43;3.10;;;9.90;55.50;;;;;;20622;6801;123929;-70
2023/12/10 07:14:26;;;;;;;5.63;2.40;;;9.60;56.50;;;;;;20820;6784;119947;-70
2023/12/10 07:17:02;;;;;;;11.00;3.40;;;9.30;57.30;;;;;;20500;6814;338764;-71
2023/12/10 07:19:39;;;;;;;9.00;3.00;;;9.30;56.90;;;;;;20518;6793;289020;-71
2023/12/10 07:22:17;;;;;;;12.00;3.65;;;9.60;56.20;;;;;;20456;6778;309305;-71
2023/12/10 07:24:52;;;;;;;11.50;3.10;;;9.80;55.70;;;;;;20863;6760;120156;-71
2023/12/10 07:27:28;;;;;;;10.10;2.53;;;9.70;56.10;;;;;;20779;6774;153099;-71
2023/12/10 07:30:04;;;;;;;8.87;2.50;;;9.40;57.00;;;;;;20872;6754;117194;-71
2023/12/10 07:32:40;;;;;;;10.97;3.47;;;9.20;57.80;;;;;;20656;6757;312195;-71
2023/12/10 07:35:15;;;;;;;10.87;2.93;;;9.30;57.10;;;;;;20827;6771;119610;-72
2023/12/10 07:37:54;;;;;;;9.82;2.95;;;9.20;57.40;;;;;;20552;6783;308020;-72
2023/12/10 07:40:27;;;;;;;11.57;3.33;;;9.40;56.50;;;;;;20521;6789;339553;-73
2023/12/10 07:43:02;;;;;;;9.30;3.20;;;9.70;56.20;;;;;;20505;6797;309081;-74
2023/12/10 07:45:38;;;;;;;9.37;3.10;;;10.00;54.70;;;;;;20555;6783;278658;-73
2023/12/10 07:48:13;;;;;;;7.43;2.30;;;10.20;54.10;;;;;;20734;6794;117683;-73
2023/12/10 07:50:49;;;;;;;16.85;9.55;;;10.00;54.50;;;;;;20514;6786;301339;-73
2023/12/10 07:53:25;;;;;;;11.20;5.62;;;10.00;54.00;;;;;;20552;6777;310802;-72
2023/12/10 07:56:00;;;;;;;15.03;9.07;;;10.10;53.30;;;;;;20803;6775;117381;-72
2023/12/10 07:58:36;;;;;;;14.00;7.33;;;10.00;54.00;;;;;;20810;6766;117213;-73
2023/12/10 08:01:11;;;;;;;11.85;5.75;;;9.70;55.80;;;;;;20536;6766;338591;-73
2023/12/10 08:03:47;;;;;;;7.13;3.50;;;9.80;55.20;;;;;;20892;6741;117068;-73
2023/12/10 08:06:23;;;;;;;8.77;4.30;;;9.70;55.60;;;;;;20823;6769;117485;-73
2023/12/10 08:09:04;;;;;;;6.10;2.97;;;9.40;57.40;;;;;;20816;6761;117108;-73
2023/12/10 08:11:36;;;;;;;12.10;5.12;;;9.50;55.90;;;;;;20487;6771;339210;-71
2023/12/10 08:14:11;;;;;;;16.17;7.50;;;9.50;55.90;;;;;;20874;6758;117634;-70
2023/12/10 08:16:47;;;;;;;13.23;7.07;;;9.60;56.20;;;;;;20630;6766;308843;-70
2023/12/10 08:19:25;;;;;;;9.40;6.17;;;9.70;55.40;;;;;;20833;6766;117655;-70
2023/12/10 08:21:58;;;;;;;17.10;8.20;;;9.70;55.60;;;;;;20535;6751;283506;-70
2023/12/10 08:24:35;;;;;;;12.82;5.40;;;9.80;54.80;;;;;;20595;6777;337206;-71
2023/12/10 08:27:10;;;;;;;7.90;3.50;;;10.10;53.00;;;;;;20636;6762;336676;-71
2023/12/10 08:29:47;;;;;;;9.23;2.97;;;10.30;52.50;;;;;;20811;6766;117786;-73
2023/12/10 08:32:24;;;;;;;7.93;2.93;;;10.30;52.80;;;;;;20540;6638;278889;-72
2023/12/10 08:34:59;;;;;;;9.60;3.58;;;10.30;52.70;;;;;;20656;6760;308349;-72
2023/12/10 08:37:35;;;;;;;12.33;2.97;;;10.40;52.00;;;;;;20829;6765;117474;-73
2023/12/10 08:40:11;;;;;;;7.23;2.50;;;10.30;52.70;;;;;;20779;6769;118049;-78
2023/12/10 08:42:47;;;;;;;6.97;2.95;;;10.10;53.70;;;;;;20572;6785;331925;-73
2023/12/10 08:45:22;;;;;;;10.52;3.40;;;10.20;53.00;;;;;;20577;6780;333341;-73
2023/12/10 08:47:57;;;;;;;10.93;2.97;;;10.40;52.00;;;;;;20777;6780;117642;-72
2023/12/10 08:50:33;;;;;;;8.50;3.08;;;10.40;52.90;;;;;;20543;6780;309449;-72
2023/12/10 08:53:09;;;;;;;13.90;3.50;;;10.40;52.40;;;;;;20600;6775;277854;-72
2023/12/10 08:55:46;;;;;;;9.77;3.17;;;10.80;51.80;;;;;;20648;6751;306276;-73
2023/12/10 08:58:21;;;;;;;8.47;2.50;;;10.80;51.60;;;;;;20787;6781;116955;-72
2023/12/10 09:00:56;;;;;;;6.63;1.60;;;10.60;52.30;;;;;;20712;6798;117561;-73
2023/12/10 09:03:32;;;;;;;8.03;2.27;;;10.40;53.30;;;;;;20760;6797;120921;-73
2023/12/10 09:06:07;;;;;;;10.27;3.28;;;10.20;54.10;;;;;;20654;6770;327937;-74
2023/12/10 09:08:43;;;;;;;6.17;2.17;;;10.30;53.20;;;;;;20810;6777;118591;-73
2023/12/10 09:11:19;;;;;;;7.10;2.30;;;10.30;53.80;;;;;;20694;6788;117230;-73
2023/12/10 09:13:54;;;;;;;8.88;2.90;;;10.20;54.50;;;;;;20624;6776;320797;-73
2023/12/10 09:16:30;;;;;;;9.30;2.50;;;10.40;53.90;;;;;;20790;6796;116362;-73
2023/12/10 09:19:06;;;;;;;9.37;2.60;;;10.40;54.20;;;;;;20820;6783;116663;-74
2023/12/10 09:21:41;;;;;;;5.23;2.00;;;10.40;54.90;;;;;;20683;6777;117843;-74
2023/12/10 09:24:17;;;;;;;8.73;2.53;;;10.30;55.20;;;;;;20572;6781;309368;-72
2023/12/10 09:26:53;;;;;;;4.37;2.07;;;10.40;53.60;;;;;;20778;6788;120227;-73
2023/12/10 09:29:28;;;;;;;8.00;2.35;;;10.50;54.10;;;;;;20521;6796;306192;-75
2023/12/10 09:32:04;;;;;;;6.07;1.90;;;10.60;53.10;;;;;;20606;6803;117819;-72
2023/12/10 09:34:40;;;;;;;8.07;2.90;;;10.70;53.10;;;;;;20504;6805;337746;-73
2023/12/10 09:37:15;;;;;;;6.68;2.55;;;10.80;52.60;;;;;;20513;6803;310760;-72
2023/12/10 09:39:51;;;;;;;5.67;2.20;;;11.20;51.50;;;;;;20701;6803;120239;-72
2023/12/10 09:42:27;;;;;;;4.10;1.70;;;11.20;52.00;;;;;;20590;6796;118087;-73
2023/12/10 09:45:03;;;;;;;6.37;2.20;;;11.10;52.30;;;;;;20598;6783;280916;-73
2023/12/10 09:47:40;;;;;;;6.30;2.00;;;11.20;51.60;;;;;;20786;6783;120058;-73
2023/12/10 09:50:15;;;;;;;6.60;2.00;;;11.00;52.80;;;;;;20786;6782;117260;-72
2023/12/10 09:52:51;;;;;;;5.03;1.60;;;10.90;52.70;;;;;;20858;6765;117001;-72
2023/12/10 09:55:27;;;;;;;6.97;2.07;;;10.50;54.50;;;;;;20700;6765;118579;-72
2023/12/10 09:58:05;;;;;;;6.90;2.58;;;10.50;53.80;;;;;;20564;6769;307692;-72
2023/12/10 10:00:38;;;;;;;5.67;2.50;;;10.70;53.10;;;;;;20528;6785;281893;-73
2023/12/10 10:03:14;;;;;;;5.77;2.40;;;11.00;52.00;;;;;;20763;6782;117378;-73
2023/12/10 10:05:50;;;;;;;5.12;2.45;;;11.10;52.50;;;;;;20551;6782;278166;-74
2023/12/10 10:08:25;;;;;;;6.07;2.40;;;11.20;52.00;;;;;;20502;6797;297052;-73
2023/12/10 10:11:01;;;;;;;6.60;2.40;;;11.40;51.90;;;;;;20464;6803;306904;-73
2023/12/10 10:13:37;;;;;;;6.67;2.33;;;11.60;50.50;;;;;;20570;6784;278184;-72
2023/12/10 10:16:13;;;;;;;5.45;2.78;;;11.90;50.40;;;;;;20570;6782;337816;-72
2023/12/10 10:18:49;;;;;;;8.60;2.70;;;11.90;49.60;;;;;;20555;6782;308962;-73
2023/12/10 10:21:25;;;;;;;4.90;2.00;;;11.90;49.60;;;;;;20706;6782;117959;-75
2023/12/10 10:24:03;;;;;;;7.77;2.90;;;11.30;51.40;;;;;;20832;6767;117180;-74
2023/12/10 10:26:37;;;;;;;7.70;2.27;;;11.30;51.40;;;;;;20842;6767;116979;-73
2023/12/10 10:29:13;;;;;;;7.10;2.87;;;11.00;52.20;;;;;;20608;6767;316475;-74
2023/12/10 10:31:50;;;;;;;3.83;2.10;;;11.00;52.50;;;;;;20695;6771;118599;-73
2023/12/10 10:34:26;;;;;;;5.23;2.30;;;10.90;52.40;;;;;;20776;6785;117420;-74
2023/12/10 10:37:02;;;;;;;8.03;3.03;;;10.80;53.10;;;;;;20778;6785;117282;-74
2023/12/10 10:39:37;;;;;;;11.20;5.43;;;10.60;53.60;;;;;;20738;6786;117718;-74
2023/12/10 10:42:13;;;;;;;10.27;5.57;;;10.50;54.30;;;;;;20404;6785;305905;-74
2023/12/10 10:44:48;;;;;;;8.37;3.07;;;10.70;53.90;;;;;;20586;6767;118052;-74
2023/12/10 10:47:25;;;;;;;4.93;3.10;;;10.80;53.70;;;;;;20752;6811;118436;-74
2023/12/10 10:50:00;;;;;;;10.55;5.45;;;10.70;54.30;;;;;;20593;6768;339404;-73
2023/12/10 10:52:35;;;;;;;7.87;3.37;;;10.90;53.30;;;;;;20643;6775;117708;-73
2023/12/10 10:55:11;;;;;;;7.12;2.85;;;10.90;53.60;;;;;;20450;6833;306776;-73
2023/12/10 10:57:47;;;;;;;9.73;3.87;;;11.10;52.70;;;;;;20565;6766;297551;-73
2023/12/10 11:00:23;;;;;;;6.70;3.27;;;11.70;51.30;;;;;;20602;6766;311643;-74
2023/12/10 11:02:58;;;;;;;10.20;2.97;;;11.70;51.30;;;;;;20786;6785;117155;-73
2023/12/10 11:05:34;;;;;;;5.73;2.80;;;11.70;51.80;;;;;;20726;6792;117838;-74
2023/12/10 11:08:10;;;;;;;8.55;3.65;;;11.50;52.70;;;;;;20582;6777;336224;-74
2023/12/10 11:10:45;;;;;;;5.47;2.40;;;11.60;52.40;;;;;;20736;6777;117776;-74
2023/12/10 11:13:41;;;;;;;4.17;2.27;;;11.60;53.00;;;;;;20785;6780;117882;-73
2023/12/10 11:16:18;;;;;;;8.70;3.05;;;11.50;53.40;;;;;;20530;6796;279086;-74
2023/12/10 11:18:54;;;;;;;7.37;2.47;;;11.70;52.30;;;;;;20773;6796;117173;-74
2023/12/10 11:21:30;;;;;;;7.53;2.83;;;11.80;51.90;;;;;;20493;6765;336682;-74
2023/12/10 11:24:05;;;;;;;5.03;2.30;;;11.80;51.80;;;;;;20851;6751;117352;-74
2023/12/10 11:26:41;;;;;;;8.77;2.97;;;11.80;52.40;;;;;;20541;6784;336882;-74
2023/12/10 11:29:17;;;;;;;7.55;2.87;;;11.90;51.50;;;;;;20635;6757;278136;-74
2023/12/10 11:31:52;;;;;;;5.60;2.43;;;12.20;50.60;;;;;;20692;6756;118943;-74
2023/12/10 11:34:28;;;;;;;8.27;2.50;;;12.10;51.20;;;;;;20643;6763;307677;-74
2023/12/10 11:37:03;;;;;;;5.80;2.10;;;12.10;50.40;;;;;;20903;6747;117137;-74
2023/12/10 11:39:39;;;;;;;6.45;2.65;;;11.90;51.00;;;;;;20621;6762;279389;-75
2023/12/10 11:42:15;;;;;;;5.70;2.27;;;11.90;50.00;;;;;;20702;6762;117976;-74
2023/12/10 11:44:53;;;;;;;6.57;2.43;;;11.80;50.80;;;;;;20636;6762;307052;-74
2023/12/10 11:47:26;;;;;;;9.25;2.80;;;11.80;50.20;;;;;;20614;6762;276982;-74
2023/12/10 11:50:05;;;;;;;7.43;2.80;;;12.00;49.80;;;;;;20594;6767;306974;-74
2023/12/10 11:52:41;;;;;;;8.95;2.83;;;12.20;49.30;;;;;;20665;6753;305987;-74
2023/12/10 11:55:16;;;;;;;6.82;2.80;;;12.30;48.90;;;;;;20668;6753;307574;-74
2023/12/10 11:57:52;;;;;;;7.13;2.07;;;12.40;49.60;;;;;;20867;6752;117040;-74
2023/12/10 12:00:28;;;;;;;6.30;2.78;;;12.20;50.00;;;;;;20628;6753;337432;-74
2023/12/10 12:03:05;;;;;;;5.28;2.47;;;12.10;49.30;;;;;;20618;6767;277681;-74
2023/12/10 12:05:39;;;;;;;6.10;2.00;;;12.20;49.10;;;;;;20854;6752;117505;-74
2023/12/10 12:08:15;;;;;;;8.02;2.58;;;12.10;50.10;;;;;;20712;6738;337103;-74
2023/12/10 12:10:50;;;;;;;7.20;2.03;;;12.10;49.90;;;;;;20733;6783;117632;-74
2023/12/10 12:13:26;;;;;;;6.85;2.62;;;11.90;50.60;;;;;;20524;6797;304502;-74
2023/12/10 12:16:02;;;;;;;7.37;2.43;;;11.90;50.10;;;;;;20530;6821;118079;-74
2023/12/10 12:18:37;;;;;;;5.90;2.07;;;11.90;51.00;;;;;;20727;6799;117706;-74
2023/12/10 12:21:13;;;;;;;7.03;2.33;;;11.60;51.70;;;;;;20723;6771;117484;-74
2023/12/10 12:23:48;;;;;;;6.90;2.50;;;11.40;52.40;;;;;;20636;6752;315950;-74
2023/12/10 12:26:24;;;;;;;4.10;2.00;;;11.50;50.80;;;;;;20887;6752;117573;-74
2023/12/10 12:29:00;;;;;;;4.97;2.30;;;11.50;51.40;;;;;;20659;6752;307529;-74
2023/12/10 12:31:38;;;;;;;6.60;2.40;;;11.90;49.70;;;;;;20541;6753;310835;-74
2023/12/10 12:34:12;;;;;;;5.63;2.40;;;11.90;49.30;;;;;;20620;6767;307532;-74
2023/12/10 12:36:47;;;;;;;5.13;2.17;;;12.10;48.90;;;;;;20834;6767;118039;-74
2023/12/10 12:39:23;;;;;;;7.12;2.47;;;12.00;49.80;;;;;;20569;6782;338126;-74
2023/12/10 12:42:00;;;;;;;4.80;1.67;;;12.00;50.00;;;;;;20692;6772;120643;-74
2023/12/10 12:44:35;;;;;;;5.87;2.50;;;11.90;49.90;;;;;;20803;6778;119545;-74
2023/12/10 12:47:11;;;;;;;5.72;2.37;;;11.70;50.80;;;;;;20536;6795;307317;-74
2023/12/10 12:49:46;;;;;;;2.87;1.57;;;11.80;49.80;;;;;;20834;6756;120167;-74
2023/12/10 12:52:23;;;;;;;4.30;1.70;;;11.50;51.30;;;;;;20667;6768;118516;-74
2023/12/10 12:54:58;;;;;;;4.27;1.73;;;11.50;51.20;;;;;;20917;6742;117449;-74
2023/12/10 12:57:34;;;;;;;5.00;1.73;;;11.40;52.00;;;;;;20891;6742;118034;-74
2023/12/10 13:00:11;;;;;;;4.75;2.20;;;11.20;52.40;;;;;;20684;6742;305407;-74
2023/12/10 13:02:46;;;;;;;4.63;1.67;;;11.40;51.40;;;;;;20928;6738;117361;-74
2023/12/10 13:05:22;;;;;;;6.63;2.40;;;11.50;50.30;;;;;;20676;6751;277348;-74
2023/12/10 13:07:58;;;;;;;4.73;1.87;;;11.50;50.30;;;;;;20610;6765;307642;-74
2023/12/10 13:10:34;;;;;;;4.37;1.87;;;11.80;49.70;;;;;;20741;6783;117905;-74
2023/12/10 13:13:09;;;;;;;4.83;1.90;;;11.80;50.30;;;;;;20818;6771;118255;-74
2023/12/10 13:15:45;;;;;;;4.10;2.07;;;11.50;51.10;;;;;;20583;6769;351028;-74
2023/12/10 13:18:21;;;;;;;4.83;1.67;;;11.60;50.70;;;;;;20823;6769;117790;-74
2023/12/10 13:20:57;;;;;;;3.97;2.10;;;11.60;50.70;;;;;;20558;6769;279895;-74